createdAt,value
2019-02-28T00:00:48.924Z,100674.78
2019-02-28T00:03:22.108Z,100667.43
2019-02-28T00:05:54.756Z,100667.33
2019-02-28T00:08:26.343Z,100668.10
2019-02-28T00:10:57.969Z,100655.47
2019-02-28T00:13:29.805Z,100657.09
2019-02-28T00:16:03.297Z,100651.16
2019-02-28T00:18:34.765Z,100648.69
2019-02-28T00:21:07.105Z,100641.90
2019-02-28T00:23:38.788Z,100633.32
2019-02-28T00:26:11.656Z,100626.36
2019-02-28T00:28:43.950Z,100613.84
2019-02-28T00:31:15.539Z,100619.16
2019-02-28T00:33:47.124Z,100624.33
2019-02-28T00:36:19.304Z,100608.28
2019-02-28T00:38:51.375Z,100607.34
2019-02-28T00:41:22.966Z,100601.78
2019-02-28T00:43:56.872Z,100599.78
2019-02-28T00:46:28.024Z,100595.77
2019-02-28T00:48:59.804Z,100589.16
2019-02-28T00:51:31.386Z,100586.11
2019-02-28T00:54:02.967Z,100580.03
2019-02-28T00:56:34.582Z,100582.21
2019-02-28T00:59:06.169Z,100580.59
2019-02-28T01:01:37.761Z,100568.25
2019-02-28T01:04:10.416Z,100564.22
2019-02-28T01:06:42.543Z,100555.36
2019-02-28T01:09:14.125Z,100554.48
2019-02-28T01:11:45.778Z,100544.33
2019-02-28T01:14:17.362Z,100545.55
2019-02-28T01:16:50.190Z,100534.09
2019-02-28T01:19:22.271Z,100529.06
2019-02-28T01:21:55.427Z,100523.41
2019-02-28T01:24:27.255Z,100521.13
2019-02-28T01:26:59.986Z,100514.24
2019-02-28T01:29:32.943Z,100515.89
2019-02-28T01:32:05.131Z,100510.80
2019-02-28T01:34:36.779Z,100509.08
2019-02-28T01:37:08.366Z,100499.27
2019-02-28T01:39:39.984Z,100491.72
2019-02-28T01:42:11.575Z,100488.10
2019-02-28T01:44:43.183Z,100480.30
2019-02-28T01:47:14.836Z,100479.25
2019-02-28T01:49:46.482Z,100478.37
2019-02-28T01:52:18.086Z,100468.64
2019-02-28T01:54:49.689Z,100462.84
2019-02-28T01:57:21.287Z,100451.49
2019-02-28T01:59:53.667Z,100453.59
2019-02-28T02:02:25.280Z,100448.69
2019-02-28T02:04:57.083Z,100437.34
2019-02-28T02:07:30.570Z,100439.84
2019-02-28T02:10:02.161Z,100437.55
2019-02-28T02:12:33.936Z,100421.14
2019-02-28T02:15:06.721Z,100407.98
2019-02-28T02:17:38.387Z,100394.40
2019-02-28T02:20:10.387Z,100390.50
2019-02-28T02:22:44.475Z,100393.53
2019-02-28T02:25:15.301Z,100391.14
2019-02-28T02:27:46.906Z,100374.81
2019-02-28T02:30:21.052Z,100368.46
2019-02-28T02:32:52.717Z,100362.17
2019-02-28T02:35:24.335Z,100363.97
2019-02-28T02:37:56.133Z,100358.73
2019-02-28T02:40:27.959Z,100366.04
2019-02-28T02:42:59.846Z,100366.12
2019-02-28T02:45:31.480Z,100346.49
2019-02-28T02:48:05.157Z,100359.63
2019-02-28T02:50:36.384Z,100351.55
2019-02-28T02:53:07.985Z,100350.11
2019-02-28T02:55:39.917Z,100340.95
2019-02-28T02:58:11.771Z,100345.83
2019-02-28T03:00:49.642Z,100340.00
2019-02-28T03:03:16.656Z,100338.46
2019-02-28T03:05:51.144Z,100334.07
2019-02-28T03:08:22.767Z,100333.41
2019-02-28T03:10:54.396Z,100324.53
2019-02-28T03:13:26.971Z,100328.91
2019-02-28T03:15:59.511Z,100321.97
2019-02-28T03:18:33.093Z,100317.86
2019-02-28T03:21:04.693Z,100309.86
2019-02-28T03:23:40.163Z,100303.68
2019-02-28T03:26:09.654Z,100305.78
2019-02-28T03:28:41.862Z,100303.95
2019-02-28T03:31:15.411Z,100300.14
2019-02-28T03:33:47.217Z,100292.70
2019-02-28T03:36:18.821Z,100280.56
2019-02-28T03:38:50.442Z,100273.63
2019-02-28T03:41:22.301Z,100277.72
2019-02-28T03:43:53.983Z,100270.29
2019-02-28T03:46:25.593Z,100265.98
2019-02-28T03:48:57.349Z,100264.72
2019-02-28T03:51:31.964Z,100264.51
2019-02-28T03:54:03.563Z,100254.90
2019-02-28T03:56:35.190Z,100248.23
2019-02-28T03:59:06.786Z,100240.44
2019-02-28T04:01:44.820Z,100234.05
2019-02-28T04:04:12.526Z,100234.80
2019-02-28T04:06:44.304Z,100225.39
2019-02-28T04:09:15.908Z,100221.16
2019-02-28T04:11:47.533Z,100217.06
2019-02-28T04:14:19.127Z,100212.88
2019-02-28T04:16:54.143Z,100214.59
2019-02-28T04:19:24.124Z,100211.06
2019-02-28T04:21:55.849Z,100199.24
2019-02-28T04:24:27.456Z,100196.55
2019-02-28T04:27:06.338Z,100187.04
2019-02-28T04:29:32.769Z,100190.27
2019-02-28T04:32:04.462Z,100189.78
2019-02-28T04:34:36.115Z,100186.06
2019-02-28T04:37:08.600Z,100175.69
2019-02-28T04:39:42.384Z,100162.92
2019-02-28T04:42:13.994Z,100178.25
2019-02-28T04:44:45.661Z,100169.00
2019-02-28T04:47:17.343Z,100161.48
2019-02-28T04:49:48.931Z,100158.05
2019-02-28T04:52:20.553Z,100149.02
2019-02-28T04:54:52.172Z,100141.02
2019-02-28T04:57:23.812Z,100129.34
2019-02-28T04:59:55.411Z,100127.91
2019-02-28T05:02:28.303Z,100119.70
2019-02-28T05:05:00.296Z,100115.91
2019-02-28T05:07:31.903Z,100108.48
2019-02-28T05:10:03.645Z,100096.22
2019-02-28T05:12:36.219Z,100096.49
2019-02-28T05:15:08.575Z,100088.41
2019-02-28T05:17:40.204Z,100078.97
2019-02-28T05:20:12.287Z,100082.51
2019-02-28T05:22:44.078Z,100081.36
2019-02-28T05:25:18.670Z,100078.80
2019-02-28T05:27:49.039Z,100077.92
2019-02-28T05:30:20.641Z,100082.13
2019-02-28T05:32:52.428Z,100076.61
2019-02-28T05:35:26.694Z,100069.21
2019-02-28T05:37:57.338Z,100054.54
2019-02-28T05:40:28.939Z,100063.02
2019-02-28T05:43:00.566Z,100071.02
2019-02-28T05:45:32.184Z,100063.69
2019-02-28T05:48:04.653Z,100055.50
2019-02-28T05:50:36.371Z,100056.58
2019-02-28T05:53:09.437Z,100057.03
2019-02-28T05:55:41.255Z,100048.28
2019-02-28T05:58:17.576Z,100049.62
2019-02-28T06:00:46.183Z,100057.42
2019-02-28T06:03:17.896Z,100040.18
2019-02-28T06:05:49.483Z,100032.02
2019-02-28T06:08:21.093Z,100029.62
2019-02-28T06:10:56.067Z,100035.64
2019-02-28T06:13:26.206Z,100033.23
2019-02-28T06:15:57.828Z,100027.91
2019-02-28T06:18:32.663Z,100024.39
2019-02-28T06:21:02.748Z,100033.23
2019-02-28T06:23:34.428Z,100034.77
2019-02-28T06:26:06.151Z,100028.18
2019-02-28T06:28:37.762Z,100018.67
2019-02-28T06:31:09.358Z,100013.64
2019-02-28T06:33:40.979Z,100027.43
2019-02-28T06:36:12.647Z,100022.37
2019-02-28T06:38:44.330Z,100030.37
2019-02-28T06:41:15.942Z,100050.37
2019-02-28T06:43:50.238Z,100037.11
2019-02-28T06:46:21.043Z,100043.77
2019-02-28T06:48:52.680Z,100049.06
2019-02-28T06:51:24.238Z,100035.91
2019-02-28T06:53:55.933Z,100046.20
2019-02-28T06:56:27.617Z,100039.88
2019-02-28T06:58:59.242Z,100031.94
2019-02-28T07:01:30.895Z,100011.73
2019-02-28T07:04:02.572Z,100016.86
2019-02-28T07:06:35.976Z,100009.87
2019-02-28T07:09:08.183Z,100010.80
2019-02-28T07:11:39.839Z,100029.67
2019-02-28T07:14:13.842Z,100021.64
2019-02-28T07:16:44.740Z,100015.14
2019-02-28T07:19:16.373Z,100012.52
2019-02-28T07:21:47.953Z,100012.72
2019-02-28T07:24:19.576Z,100009.98
2019-02-28T07:26:52.297Z,100004.73
2019-02-28T07:29:24.646Z,100004.95
2019-02-28T07:31:59.777Z,100013.01
2019-02-28T07:34:30.497Z,100018.06
2019-02-28T07:37:02.086Z,100019.61
2019-02-28T07:39:36.522Z,100004.70
2019-02-28T07:42:07.003Z,100004.77
2019-02-28T07:44:38.624Z,99999.88
2019-02-28T07:47:10.226Z,99993.39
2019-02-28T07:49:41.869Z,100005.02
2019-02-28T07:52:13.446Z,100013.73
2019-02-28T07:54:47.553Z,100009.31
2019-02-28T07:57:18.375Z,100019.33
2019-02-28T07:59:49.976Z,100016.39
2019-02-28T08:02:21.668Z,100014.89
2019-02-28T08:04:54.547Z,100009.11
2019-02-28T08:07:26.716Z,100015.98
2019-02-28T08:09:58.557Z,100016.64
2019-02-28T08:12:30.860Z,100020.72
2019-02-28T08:15:02.989Z,100019.03
2019-02-28T08:17:35.397Z,100024.66
2019-02-28T08:20:07.377Z,100023.61
2019-02-28T08:22:39.048Z,100015.23
2019-02-28T08:25:11.631Z,100002.20
2019-02-28T08:27:43.308Z,99998.54
2019-02-28T08:30:19.471Z,100005.06
2019-02-28T08:32:49.798Z,100004.45
2019-02-28T08:35:22.492Z,100005.91
2019-02-28T08:37:57.132Z,100004.20
2019-02-28T08:40:27.679Z,100000.80
2019-02-28T08:42:59.279Z,99999.67
2019-02-28T08:45:33.493Z,100006.27
2019-02-28T08:48:04.313Z,100006.87
2019-02-28T08:50:35.932Z,100026.39
2019-02-28T08:53:07.571Z,100017.98
2019-02-28T08:55:41.659Z,100020.78
2019-02-28T08:58:12.461Z,100005.41
2019-02-28T09:00:44.071Z,100010.64
2019-02-28T09:03:15.672Z,99990.36
2019-02-28T09:05:47.275Z,99998.50
2019-02-28T09:08:18.940Z,99994.55
2019-02-28T09:10:51.609Z,100024.57
2019-02-28T09:13:24.991Z,99979.98
2019-02-28T09:15:56.788Z,99995.97
2019-02-28T09:18:28.576Z,99986.30
2019-02-28T09:21:00.469Z,99994.05
2019-02-28T09:23:34.531Z,100008.23
2019-02-28T09:26:06.443Z,100010.72
2019-02-28T09:28:38.132Z,100008.58
2019-02-28T09:31:09.823Z,100010.69
2019-02-28T09:33:41.503Z,100012.69
2019-02-28T09:36:13.111Z,100011.80
2019-02-28T09:38:45.252Z,100015.33
2019-02-28T09:41:19.063Z,100017.78
2019-02-28T09:43:50.779Z,100013.30
2019-02-28T09:46:22.371Z,100021.16
2019-02-28T09:48:53.994Z,100013.87
2019-02-28T09:51:31.637Z,100006.44
2019-02-28T09:53:58.920Z,100006.34
2019-02-28T09:56:30.590Z,100017.78
2019-02-28T09:59:03.244Z,100007.14
2019-02-28T10:01:35.537Z,100013.92
2019-02-28T10:04:07.193Z,100011.67
2019-02-28T10:06:38.951Z,100005.52
2019-02-28T10:09:10.577Z,100027.84
2019-02-28T10:11:42.189Z,100017.85
2019-02-28T10:14:13.819Z,100023.20
2019-02-28T10:16:45.545Z,100015.27
2019-02-28T10:19:17.195Z,100016.61
2019-02-28T10:21:52.121Z,100009.34
2019-02-28T10:24:22.136Z,100003.19
2019-02-28T10:26:53.831Z,100016.20
2019-02-28T10:29:25.527Z,100026.75
2019-02-28T10:31:57.349Z,100017.23
2019-02-28T10:34:29.029Z,100017.79
2019-02-28T10:37:00.719Z,100014.92
2019-02-28T10:39:32.409Z,100026.36
2019-02-28T10:42:05.152Z,100033.14
2019-02-28T10:44:38.732Z,100031.15
2019-02-28T10:47:10.377Z,100031.20
2019-02-28T10:49:42.053Z,100028.09
2019-02-28T10:52:13.753Z,100030.45
2019-02-28T10:54:48.431Z,100036.09
2019-02-28T10:57:18.709Z,100033.15
2019-02-28T10:59:50.639Z,100035.93
2019-02-28T11:02:22.285Z,100041.66
2019-02-28T11:04:54.045Z,100047.14
2019-02-28T11:07:25.681Z,100043.13
2019-02-28T11:09:58.802Z,100042.12
2019-02-28T11:12:30.765Z,100044.91
2019-02-28T11:15:02.446Z,100054.97
2019-02-28T11:17:34.326Z,100045.81
2019-02-28T11:20:06.744Z,100048.16
2019-02-28T11:22:39.880Z,100061.81
2019-02-28T11:25:12.934Z,100051.88
2019-02-28T11:27:44.657Z,100055.80
2019-02-28T11:30:17.403Z,100054.78
2019-02-28T11:32:49.128Z,100060.53
2019-02-28T11:35:23.226Z,100066.50
2019-02-28T11:37:54.147Z,100059.23
2019-02-28T11:40:26.838Z,100062.12
2019-02-28T11:42:59.496Z,100071.61
2019-02-28T11:45:32.601Z,100068.05
2019-02-28T11:48:05.228Z,100095.63
2019-02-28T11:50:41.337Z,100075.25
2019-02-28T11:53:10.291Z,100061.11
2019-02-28T11:55:42.284Z,100057.14
2019-02-28T11:58:17.701Z,100053.72
2019-02-28T12:00:47.325Z,100043.72
2019-02-28T12:03:19.021Z,100048.77
2019-02-28T12:05:51.349Z,100049.16
2019-02-28T12:08:23.154Z,100053.87
2019-02-28T12:10:54.840Z,100047.75
2019-02-28T12:13:26.696Z,100045.09
2019-02-28T12:15:58.517Z,100041.83
2019-02-28T12:18:30.389Z,100038.64
2019-02-28T12:21:04.201Z,100031.44
2019-02-28T12:23:35.337Z,100042.75
2019-02-28T12:26:07.155Z,100032.66
2019-02-28T12:28:39.164Z,100029.77
2019-02-28T12:31:10.868Z,100047.61
2019-02-28T12:33:42.484Z,100046.06
2019-02-28T12:36:14.517Z,100046.12
2019-02-28T12:38:46.958Z,100038.84
2019-02-28T12:41:21.725Z,100040.37
2019-02-28T12:43:51.969Z,100041.38
2019-02-28T12:46:23.746Z,100045.91
2019-02-28T12:48:55.418Z,100050.73
2019-02-28T12:51:28.327Z,100049.09
2019-02-28T12:54:00.147Z,100062.29
2019-02-28T12:56:31.992Z,100057.95
2019-02-28T12:59:03.961Z,100050.14
2019-02-28T13:01:35.580Z,100060.01
2019-02-28T13:04:07.323Z,100040.09
2019-02-28T13:06:39.904Z,100051.59
2019-02-28T13:09:16.893Z,100049.22
2019-02-28T13:11:47.721Z,100050.21
2019-02-28T13:14:19.427Z,100043.46
2019-02-28T13:16:51.045Z,100053.42
2019-02-28T13:19:22.695Z,100038.99
2019-02-28T13:21:54.295Z,100047.61
2019-02-28T13:24:26.010Z,100034.79
2019-02-28T13:26:57.817Z,100037.91
2019-02-28T13:29:32.411Z,100038.48
2019-02-28T13:32:02.817Z,100029.34
2019-02-28T13:34:34.432Z,100047.22
2019-02-28T13:37:06.121Z,100030.38
2019-02-28T13:39:37.764Z,100035.78
2019-02-28T13:42:09.552Z,100042.62
2019-02-28T13:44:41.195Z,100045.62
2019-02-28T13:47:12.805Z,100054.19
2019-02-28T13:49:46.624Z,100054.19
2019-02-28T13:52:20.300Z,100061.42
2019-02-28T13:54:51.165Z,100069.88
2019-02-28T13:57:22.855Z,100066.63
2019-02-28T13:59:54.549Z,100069.74
2019-02-28T14:02:29.443Z,100068.91
2019-02-28T14:05:03.058Z,100070.42
2019-02-28T14:07:33.765Z,100069.56
2019-02-28T14:10:07.300Z,100072.28
2019-02-28T14:12:38.999Z,100079.12
2019-02-28T14:15:15.490Z,100081.11
2019-02-28T14:17:45.490Z,100091.03
2019-02-28T14:20:17.192Z,100091.98
2019-02-28T14:22:48.886Z,100102.55
2019-02-28T14:25:20.866Z,100098.08
2019-02-28T14:27:52.528Z,100088.80
2019-02-28T14:30:24.977Z,100089.80
2019-02-28T14:32:56.649Z,100099.09
2019-02-28T14:35:33.849Z,100099.64
2019-02-28T14:38:02.071Z,100089.41
2019-02-28T14:40:33.929Z,100096.71
2019-02-28T14:43:05.656Z,100091.67
2019-02-28T14:45:39.280Z,100092.27
2019-02-28T14:48:10.964Z,100094.02
2019-02-28T14:50:42.617Z,100104.56
2019-02-28T14:53:14.671Z,100098.25
2019-02-28T14:55:46.406Z,100100.88
2019-02-28T14:58:21.166Z,100102.50
2019-02-28T15:00:51.423Z,100100.32
2019-02-28T15:03:23.032Z,100093.14
2019-02-28T15:05:55.548Z,100087.48
2019-02-28T15:08:28.031Z,100104.56
2019-02-28T15:10:59.660Z,100099.23
2019-02-28T15:13:33.442Z,100098.72
2019-02-28T15:16:04.742Z,100104.17
2019-02-28T15:18:37.882Z,100105.64
2019-02-28T15:21:09.532Z,100104.72
2019-02-28T15:23:41.219Z,100105.44
2019-02-28T15:26:12.913Z,100112.41
2019-02-28T15:28:45.537Z,100106.53
2019-02-28T15:31:17.897Z,100109.70
2019-02-28T15:33:49.513Z,100111.57
2019-02-28T15:36:24.286Z,100118.11
2019-02-28T15:38:54.585Z,100119.96
2019-02-28T15:41:26.206Z,100114.48
2019-02-28T15:43:58.159Z,100122.67
2019-02-28T15:46:30.042Z,100124.42
2019-02-28T15:49:01.642Z,100127.78
2019-02-28T15:51:33.236Z,100133.68
2019-02-28T15:54:04.918Z,100141.95
2019-02-28T15:56:36.851Z,100138.82
2019-02-28T15:59:14.733Z,100143.11
2019-02-28T16:01:45.285Z,100151.35
2019-02-28T16:04:16.887Z,100156.02
2019-02-28T16:06:48.510Z,100166.18
2019-02-28T16:09:21.460Z,100170.34
2019-02-28T16:11:53.867Z,100168.52
2019-02-28T16:14:25.771Z,100173.52
2019-02-28T16:17:00.309Z,100181.00
2019-02-28T16:19:31.026Z,100179.78
2019-02-28T16:22:02.657Z,100193.84
2019-02-28T16:24:36.692Z,100198.11
2019-02-28T16:27:07.825Z,100201.27
2019-02-28T16:29:40.508Z,100203.06
2019-02-28T16:32:14.156Z,100208.29
2019-02-28T16:34:45.518Z,100214.02
2019-02-28T16:37:17.143Z,100215.95
2019-02-28T16:39:49.821Z,100216.75
2019-02-28T16:42:21.639Z,100224.93
2019-02-28T16:44:53.247Z,100231.87
2019-02-28T16:47:25.182Z,100233.89
2019-02-28T16:49:57.258Z,100233.18
2019-02-28T16:52:29.116Z,100239.97
2019-02-28T16:55:01.050Z,100243.59
2019-02-28T16:57:32.737Z,100249.45
2019-02-28T17:00:07.571Z,100261.44
2019-02-28T17:02:37.787Z,100255.38
2019-02-28T17:05:09.483Z,100254.47
2019-02-28T17:07:43.589Z,100251.01
2019-02-28T17:10:15.603Z,100260.67
2019-02-28T17:13:12.072Z,100266.95
2019-02-28T17:15:55.802Z,100269.27
2019-02-28T17:18:26.248Z,100267.88
2019-02-28T17:20:58.258Z,100272.78
2019-02-28T17:23:30.194Z,100273.66
2019-02-28T17:26:01.963Z,100276.25
2019-02-28T17:29:01.847Z,100274.27
2019-02-28T17:31:48.096Z,100281.70
2019-02-28T17:34:23.695Z,100287.16
2019-02-28T17:36:53.684Z,100289.92
2019-02-28T17:39:25.282Z,100294.17
2019-02-28T17:41:57.275Z,100292.02
2019-02-28T17:44:57.909Z,100290.50
2019-02-28T17:48:18.614Z,100288.84
2019-02-28T17:50:57.349Z,100286.00
2019-02-28T17:54:17.230Z,100300.15
2019-02-28T17:57:29.018Z,100291.10
2019-02-28T18:00:41.089Z,100296.55
2019-02-28T18:04:01.984Z,100298.77
2019-02-28T18:07:26.764Z,100298.58
2019-02-28T18:10:41.391Z,100299.97
2019-02-28T18:13:22.386Z,100310.77
2019-02-28T18:16:26.585Z,100316.38
2019-02-28T18:19:47.863Z,100311.56
2019-02-28T18:22:56.781Z,100312.57
2019-02-28T18:25:53.397Z,100323.22
2019-02-28T18:29:05.431Z,100317.59
2019-02-28T18:31:37.115Z,100322.69
2019-02-28T18:34:16.990Z,100326.52
2019-02-28T18:36:48.664Z,100327.12
2019-02-28T18:39:21.350Z,100333.31
2019-02-28T18:41:53.048Z,100329.88
2019-02-28T18:44:24.733Z,100330.27
2019-02-28T18:46:56.428Z,100327.97
2019-02-28T18:49:29.375Z,100328.47
2019-02-28T18:52:01.978Z,100330.18
2019-02-28T18:54:34.675Z,100338.20
2019-02-28T18:57:06.344Z,100334.95
2019-02-28T18:59:38.071Z,100340.07
2019-02-28T19:02:09.058Z,100343.81
2019-02-28T19:04:40.653Z,100349.66
2019-02-28T19:07:12.280Z,100351.95
2019-02-28T19:09:43.961Z,100347.63
2019-02-28T19:12:15.618Z,100354.70
2019-02-28T19:14:47.316Z,100357.38
2019-02-28T19:17:19.407Z,100356.22
2019-02-28T19:19:52.089Z,100363.40
2019-02-28T19:22:23.817Z,100367.60
2019-02-28T19:24:55.700Z,100373.52
2019-02-28T19:27:27.428Z,100376.56
2019-02-28T19:29:59.113Z,100377.92
2019-02-28T19:32:31.182Z,100376.39
2019-02-28T19:35:04.026Z,100382.38
2019-02-28T19:37:37.719Z,100377.03
2019-02-28T19:40:12.549Z,100380.25
2019-02-28T19:42:45.081Z,100387.52
2019-02-28T19:45:17.481Z,100390.38
2019-02-28T19:47:49.560Z,100390.06
2019-02-28T19:50:22.352Z,100395.78
2019-02-28T19:52:54.293Z,100391.03
2019-02-28T19:55:26.374Z,100382.23
2019-02-28T19:57:58.463Z,100384.23
2019-02-28T20:00:30.438Z,100389.81
2019-02-28T20:03:02.274Z,100393.99
2019-02-28T20:05:34.448Z,100391.91
2019-02-28T20:08:06.153Z,100388.86
2019-02-28T20:10:37.844Z,100395.53
2019-02-28T20:13:10.572Z,100400.73
2019-02-28T20:15:42.432Z,100397.58
2019-02-28T20:18:14.282Z,100403.09
2019-02-28T20:20:46.038Z,100407.79
2019-02-28T20:23:17.802Z,100405.83
2019-02-28T20:25:49.517Z,100407.95
2019-02-28T20:28:21.488Z,100404.52
2019-02-28T20:30:53.227Z,100406.53
2019-02-28T20:33:25.078Z,100407.27
2019-02-28T20:35:56.853Z,100414.15
2019-02-28T20:38:28.658Z,100410.47
2019-02-28T20:41:00.442Z,100410.15
2019-02-28T20:43:33.194Z,100408.36
2019-02-28T20:46:04.901Z,100414.08
2019-02-28T20:48:36.590Z,100408.98
2019-02-28T20:51:08.362Z,100408.81
2019-02-28T20:53:40.441Z,100407.23
2019-02-28T20:56:12.147Z,100407.11
2019-02-28T20:58:43.859Z,100413.87
2019-02-28T21:01:15.577Z,100412.44
2019-02-28T21:03:47.360Z,100419.72
2019-02-28T21:06:19.058Z,100417.50
2019-02-28T21:08:50.738Z,100416.07
2019-02-28T21:11:22.452Z,100425.16
2019-02-28T21:13:54.134Z,100424.02
2019-02-28T21:16:25.919Z,100427.41
2019-02-28T21:18:58.270Z,100422.70
2019-02-28T21:21:30.523Z,100423.28
2019-02-28T21:24:02.318Z,100418.30
2019-02-28T21:26:34.226Z,100422.22
2019-02-28T21:29:05.829Z,100416.39
2019-02-28T21:31:37.503Z,100423.57
2019-02-28T21:34:09.240Z,100419.47
2019-02-28T21:36:40.977Z,100417.17
2019-02-28T21:39:12.675Z,100412.41
2019-02-28T21:41:45.898Z,100403.34
2019-02-28T21:44:17.681Z,100406.23
2019-02-28T21:46:49.360Z,100404.12
2019-02-28T21:49:21.045Z,100413.34
2019-02-28T21:51:52.762Z,100408.61
2019-02-28T21:54:24.458Z,100408.38
2019-02-28T21:56:56.152Z,100402.30
2019-02-28T21:59:28.107Z,100403.80
2019-02-28T22:01:59.797Z,100401.13
2019-02-28T22:04:31.671Z,100404.97
2019-02-28T22:07:03.367Z,100402.86
2019-02-28T22:09:35.943Z,100408.89
2019-02-28T22:12:07.640Z,100409.97
2019-02-28T22:14:39.270Z,100401.59
2019-02-28T22:17:10.975Z,100409.84
2019-02-28T22:19:42.583Z,100414.95
2019-02-28T22:22:14.219Z,100422.98
2019-02-28T22:24:45.834Z,100426.92
2019-02-28T22:27:17.530Z,100427.17
2019-02-28T22:29:49.141Z,100423.24
2019-02-28T22:32:39.661Z,100424.81
2019-02-28T22:35:20.122Z,100424.81
2019-02-28T22:37:51.807Z,100421.05
2019-02-28T22:40:23.478Z,100417.44
2019-02-28T22:42:55.108Z,100418.28
2019-02-28T22:45:26.715Z,100419.94
2019-02-28T22:47:59.371Z,100423.68
2019-02-28T22:50:31.259Z,100424.67
2019-02-28T22:53:02.871Z,100423.34
2019-02-28T22:55:34.485Z,100416.28
2019-02-28T22:58:09.377Z,100419.41
2019-02-28T23:01:04.053Z,100424.05
2019-02-28T23:03:36.032Z,100425.38
2019-02-28T23:06:07.901Z,100431.55
2019-02-28T23:08:39.506Z,100426.92
2019-02-28T23:11:11.119Z,100432.77
2019-02-28T23:13:42.796Z,100427.25
2019-02-28T23:16:14.404Z,100419.03
2019-02-28T23:18:46.001Z,100422.09
2019-02-28T23:21:17.613Z,100430.08
2019-02-28T23:23:49.209Z,100434.14
2019-02-28T23:26:26.838Z,100425.62
2019-02-28T23:29:08.808Z,100426.31
2019-02-28T23:32:24.025Z,100433.42
2019-02-28T23:34:56.648Z,100424.27
2019-02-28T23:37:28.383Z,100425.53
2019-02-28T23:39:59.988Z,100421.92
2019-02-28T23:42:31.589Z,100419.00
2019-02-28T23:45:03.256Z,100420.23
2019-02-28T23:47:35.927Z,100419.64
2019-02-28T23:50:08.409Z,100420.91
2019-02-28T23:52:40.038Z,100426.36
2019-02-28T23:55:11.674Z,100432.25
2019-02-28T23:57:43.277Z,100429.34
